East Lynn, WV

3:28 PM EDT on September 01, 2014 (GMT -0400)
Near Salt Rock Elementary School | Change Station
CLOSE
Current Station
Personal Weather Station
Location: Salt Rock, WV
Elevation: 627 ft
Nearby Weather Stations
Active Advisory: Special Statement

Elev 627 ft 38.32 °N, 82.23 °W | Updated 10 minutes ago

Partly Cloudy
Partly Cloudy
83.8 °F
Feels Like 94 °F
N
0.0
Wind Variable Wind from SW
Gusts 2.0 mph

Today
High -- | Low -- °F
--% Chance of Precip.
Yesterday
High -- | Low -- °F
Precip. -- in
6:58 AM 7:58 PM
Waxing Crescent, 43% visible
Pressure 29.98 in
Visibility 10.0 miles
Clouds Few 4700 ft
Scattered Clouds 5500 ft
Heat Index 94 °F
Dew Point 77 °F
Humidity 81%
Rainfall 0.00 in
Snow Depth Not available.
UV 7 out of 12
Pollen 9.30 out of 12
Air Quality Not available.
Flu Activity Not available.
METAR KHTS 011851Z 22007G15KT 10SM FEW047 SCT055 29/21 A3000 RMK AO2 SLP152 T02940211

More Conditions Fewer Conditions

Pressure 29.98 in
Visibility 10.0 miles
Clouds Few 4700 ft
Scattered Clouds 5500 ft
Heat Index 94 °F
Dew Point 77 °F
Humidity 81%
Rainfall 0.00 in
Snow Depth Not available.
UV 7 out of 12
Pollen 9.30 out of 12
Air Quality Not available.
Flu Activity Not available.
METAR KHTS 011851Z 22007G15KT 10SM FEW047 SCT055 29/21 A3000 RMK AO2 SLP152 T02940211

More Conditions Fewer Conditions

10-Day Weather Forecast

Almanac

Astronomy

Sep. 01, 2014 Rise Set
Actual Time 6:58 AM EDT 7:58 PM EDT
Civil Twilight 6:31 AM EDT 8:25 PM EDT
Nautical Twilight 5:59 AM EDT 8:57 PM EDT
Astronomical Twilight 5:26 AM EDT 9:31 PM EDT
Moon 1:37 PM EDT No Moon Set
Length of Visible Light 13h 54m
Length of Day
13h 00m
Tomorrow will be 2m 22s shorter.
Waxing Crescent, 43% of the Moon is Illuminated
Today
Waxing Crescent
Sep 2
First Quarter
Sep 8
Full
Sep 15
Last Quarter
Sep 24
New

Today's Extremes

State Highs State Lows

Community

WunderPhotos

Upload Photos

1,749,378 photos uploaded!

WunderBlogs® & News

Nearby

Snow Depth

Station Depth Elevation
No new snow has been reported.

Earthquake Activity

City Distance Mag. Time & Date
No recent earthquake activity has been reported nearby.
Minimum magnitude displayed is 2.5.

Coastal Water Temperatures

Place Temperature
No Stations Reporting

Nearby Weather Stations